Time,TemperatureF,DewpointF,PressureIn,WindDirection,WindDirectionDegrees,WindSpeedMPH,WindSpeedGustMPH,Humidity,HourlyPrecipIn,Conditions,Clouds,dailyrainin,SolarRadiationWatts/m^2,SoftwareType,DateUTC
2013-09-03 00:00:00,53.0,50.0,-100.00,SSW,204,8.0,17.0,89,0.00,,,0.00,0.000000,,2013-09-03 07:00:00,
2013-09-03 00:22:00,53.0,50.0,-100.00,SSW,204,8.0,17.0,89,0.00,,,0.00,0.000000,,2013-09-03 07:22:00,
2013-09-03 00:32:00,53.0,50.0,-100.00,SSW,204,8.0,17.0,89,0.00,,,0.00,0.000000,,2013-09-03 07:32:00,
2013-09-03 00:42:00,53.0,50.0,-100.00,SSW,204,8.0,17.0,89,0.00,,,0.00,0.000000,,2013-09-03 07:42:00,
2013-09-03 00:52:00,53.0,50.0,-100.00,SSW,204,8.0,17.0,89,0.00,,,0.00,0.000000,,2013-09-03 07:52:00,
2013-09-03 01:00:00,54.0,50.0,-100.00,SSW,204,9.0,17.0,87,0.00,,,0.00,0.000000,,2013-09-03 08:00:00,
2013-09-03 01:22:00,54.0,50.0,-100.00,SSW,204,9.0,17.0,87,0.00,,,0.00,0.000000,,2013-09-03 08:22:00,
2013-09-03 01:32:00,54.0,50.0,-100.00,SSW,204,9.0,17.0,87,0.00,,,0.00,0.000000,,2013-09-03 08:32:00,
2013-09-03 01:42:00,54.0,50.0,-100.00,SSW,204,9.0,17.0,87,0.00,,,0.00,0.000000,,2013-09-03 08:42:00,
2013-09-03 01:52:00,54.0,50.0,-100.00,SSW,204,9.0,17.0,87,0.00,,,0.00,0.000000,,2013-09-03 08:52:00,
2013-09-03 02:00:00,55.0,51.0,-100.00,SSW,195,7.0,15.0,86,0.00,,,0.00,0.000000,,2013-09-03 09:00:00,
2013-09-03 02:43:00,55.0,51.0,-100.00,SSW,195,7.0,15.0,86,0.00,,,0.00,0.000000,,2013-09-03 09:43:00,
2013-09-03 02:53:00,55.0,51.0,-100.00,SSW,195,7.0,15.0,86,0.00,,,0.00,0.000000,,2013-09-03 09:53:00,
2013-09-03 03:00:00,56.0,50.0,-100.00,South,179,2.0,9.0,80,0.00,,,0.00,0.000000,,2013-09-03 10:00:00,
2013-09-03 03:23:00,56.0,50.0,-100.00,South,179,2.0,9.0,80,0.00,,,0.00,0.000000,,2013-09-03 10:23:00,
2013-09-03 03:33:00,56.0,50.0,-100.00,South,179,2.0,9.0,80,0.00,,,0.00,0.000000,,2013-09-03 10:33:00,
2013-09-03 03:42:00,56.0,50.0,-100.00,South,179,2.0,9.0,80,0.00,,,0.00,0.000000,,2013-09-03 10:42:00,
2013-09-03 03:53:00,56.0,50.0,-100.00,South,179,2.0,9.0,80,0.00,,,0.00,0.000000,,2013-09-03 10:53:00,
2013-09-03 04:00:00,55.0,49.0,-100.00,SSW,193,4.0,9.0,79,0.00,,,0.00,0.000000,,2013-09-03 11:00:00,
2013-09-03 04:23:00,55.0,49.0,-100.00,SSW,193,4.0,9.0,79,0.00,,,0.00,0.000000,,2013-09-03 11:23:00,
2013-09-03 04:33:00,55.0,49.0,-100.00,SSW,193,4.0,9.0,79,0.00,,,0.00,0.000000,,2013-09-03 11:33:00,
2013-09-03 04:43:00,55.0,49.0,-100.00,SSW,193,4.0,9.0,79,0.00,,,0.00,0.000000,,2013-09-03 11:43:00,
2013-09-03 04:52:00,55.0,49.0,-100.00,SSW,193,4.0,9.0,79,0.00,,,0.00,0.000000,,2013-09-03 11:52:00,
2013-09-03 05:00:00,55.0,46.0,-100.00,SE,129,3.0,8.0,71,0.00,,,0.00,0.000000,,2013-09-03 12:00:00,
2013-09-03 05:22:00,55.0,46.0,-100.00,SE,129,3.0,8.0,71,0.00,,,0.00,0.000000,,2013-09-03 12:22:00,
2013-09-03 05:32:00,55.0,46.0,-100.00,SE,129,3.0,8.0,71,0.00,,,0.00,0.000000,,2013-09-03 12:32:00,
2013-09-03 05:42:00,55.0,46.0,-100.00,SE,129,3.0,8.0,71,0.00,,,0.00,0.000000,,2013-09-03 12:42:00,
2013-09-03 05:52:00,55.0,46.0,-100.00,SE,129,3.0,8.0,71,0.00,,,0.00,0.000000,,2013-09-03 12:52:00,
2013-09-03 06:00:00,56.0,54.0,-100.00,East,96,5.0,9.0,93,0.00,,,0.00,0.000000,,2013-09-03 13:00:00,
2013-09-03 06:42:00,56.0,54.0,-100.00,East,96,5.0,9.0,93,0.00,,,0.00,0.000000,,2013-09-03 13:42:00,
2013-09-03 06:52:00,56.0,54.0,-100.00,East,96,5.0,9.0,93,0.00,,,0.00,0.000000,,2013-09-03 13:52:00,
2013-09-03 07:00:00,54.0,49.0,-100.00,ENE,78,7.0,11.0,82,0.00,,,0.00,0.000000,,2013-09-03 14:00:00,
2013-09-03 07:21:00,54.0,49.0,-100.00,ENE,78,7.0,11.0,82,0.00,,,0.00,0.000000,,2013-09-03 14:21:00,
2013-09-03 07:32:00,54.0,49.0,-100.00,ENE,78,7.0,11.0,82,0.00,,,0.00,0.000000,,2013-09-03 14:32:00,
2013-09-03 07:42:00,54.0,49.0,-100.00,ENE,78,7.0,11.0,82,0.00,,,0.00,0.000000,,2013-09-03 14:42:00,
2013-09-03 07:52:00,54.0,49.0,-100.00,ENE,78,7.0,11.0,82,0.00,,,0.00,0.000000,,2013-09-03 14:52:00,
2013-09-03 08:00:00,54.0,48.0,-100.00,East,83,4.0,10.0,80,0.00,,,-99.99,28.000000,,2013-09-03 15:00:00,
2013-09-03 08:43:00,54.0,48.0,-100.00,East,83,4.0,10.0,80,0.00,,,-99.99,28.000000,,2013-09-03 15:43:00,
2013-09-03 08:54:00,54.0,48.0,-100.00,East,83,4.0,10.0,80,0.00,,,-99.99,28.000000,,2013-09-03 15:54:00,
2013-09-03 09:00:00,57.0,51.0,-100.00,SW,214,5.0,9.0,81,0.00,,,0.00,123.000000,,2013-09-03 16:00:00,
2013-09-03 09:43:00,57.0,51.0,-100.00,SW,214,5.0,9.0,81,0.00,,,0.00,123.000000,,2013-09-03 16:43:00,
2013-09-03 09:54:00,57.0,51.0,-100.00,SW,214,5.0,9.0,81,0.00,,,0.00,123.000000,,2013-09-03 16:54:00,
2013-09-03 10:00:00,60.0,50.0,-100.00,SW,218,0.0,9.0,70,0.00,,,0.00,260.000000,,2013-09-03 17:00:00,
2013-09-03 10:43:00,60.0,50.0,-100.00,SW,218,0.0,9.0,70,0.00,,,0.00,260.000000,,2013-09-03 17:43:00,
2013-09-03 10:52:00,60.0,50.0,-100.00,SW,218,0.0,9.0,70,0.00,,,0.00,260.000000,,2013-09-03 17:52:00,
2013-09-03 11:43:00,71.0,54.0,-100.00,SE,131,0.0,7.0,55,0.00,,,0.00,585.000000,,2013-09-03 18:43:00,
2013-09-03 12:00:00,62.0,57.0,-100.00,ENE,67,5.0,9.0,85,-99.99,,,0.00,437.000000,,2013-09-03 19:00:00,
2013-09-03 12:42:00,62.0,57.0,-100.00,ENE,67,5.0,9.0,85,-99.99,,,0.00,437.000000,,2013-09-03 19:42:00,
2013-09-03 12:52:00,62.0,57.0,-100.00,ENE,67,5.0,9.0,85,-99.99,,,0.00,437.000000,,2013-09-03 19:52:00,
2013-09-03 13:00:00,67.0,56.0,-100.00,ENE,73,4.0,9.0,68,0.00,,,0.00,810.000000,,2013-09-03 20:00:00,
2013-09-03 13:22:00,67.0,56.0,-100.00,ENE,73,4.0,9.0,68,0.00,,,0.00,810.000000,,2013-09-03 20:22:00,
2013-09-03 13:32:00,67.0,56.0,-100.00,ENE,73,4.0,9.0,68,0.00,,,0.00,810.000000,,2013-09-03 20:32:00,
2013-09-03 13:42:00,67.0,56.0,-100.00,ENE,73,4.0,9.0,68,0.00,,,0.00,810.000000,,2013-09-03 20:42:00,
2013-09-03 13:52:00,67.0,56.0,-100.00,ENE,73,4.0,9.0,68,0.00,,,0.00,810.000000,,2013-09-03 20:52:00,
2013-09-03 14:00:00,68.0,57.0,-100.00,East,81,1.0,8.0,68,0.00,,,0.00,590.000000,,2013-09-03 21:00:00,
2013-09-03 14:22:00,68.0,57.0,-100.00,East,81,1.0,8.0,68,0.00,,,0.00,590.000000,,2013-09-03 21:22:00,
2013-09-03 14:34:00,68.0,57.0,-100.00,East,81,1.0,8.0,68,0.00,,,0.00,590.000000,,2013-09-03 21:34:00,
2013-09-03 14:44:00,68.0,57.0,-100.00,East,81,1.0,8.0,68,0.00,,,0.00,590.000000,,2013-09-03 21:44:00,
2013-09-03 14:54:00,68.0,57.0,-100.00,East,81,1.0,8.0,68,0.00,,,0.00,590.000000,,2013-09-03 21:54:00,
2013-09-03 15:00:00,59.0,54.0,-100.00,ENE,67,5.0,8.0,83,0.00,,,0.00,320.000000,,2013-09-03 22:00:00,
2013-09-03 15:43:00,59.0,54.0,-100.00,ENE,67,5.0,8.0,83,0.00,,,0.00,320.000000,,2013-09-03 22:43:00,
2013-09-03 15:52:00,59.0,54.0,-100.00,ENE,67,5.0,8.0,83,0.00,,,0.00,320.000000,,2013-09-03 22:52:00,
2013-09-03 16:00:00,58.0,58.0,-100.00,ENE,59,2.0,8.0,99,0.00,,,0.00,93.000000,,2013-09-03 23:00:00,
2013-09-03 16:23:00,58.0,58.0,-100.00,ENE,59,2.0,8.0,99,0.00,,,0.00,93.000000,,2013-09-03 23:23:00,
2013-09-03 16:34:00,58.0,58.0,-100.00,ENE,59,2.0,8.0,99,0.00,,,0.00,93.000000,,2013-09-03 23:34:00,
2013-09-03 16:42:00,58.0,58.0,-100.00,ENE,59,2.0,8.0,99,0.00,,,0.00,93.000000,,2013-09-03 23:42:00,
2013-09-03 16:53:00,58.0,58.0,-100.00,ENE,59,2.0,8.0,99,0.00,,,0.00,93.000000,,2013-09-03 23:53:00,
2013-09-03 17:00:00,60.0,60.0,-100.00,SW,226,4.0,9.0,100,0.00,,,0.00,139.000000,,2013-09-04 00:00:00,
2013-09-03 17:22:00,60.0,60.0,-100.00,SW,226,4.0,9.0,100,0.00,,,0.00,139.000000,,2013-09-04 00:22:00,
2013-09-03 17:32:00,60.0,60.0,-100.00,SW,226,4.0,9.0,100,0.00,,,0.00,139.000000,,2013-09-04 00:32:00,
2013-09-03 17:42:00,60.0,60.0,-100.00,SW,226,4.0,9.0,100,0.00,,,0.00,139.000000,,2013-09-04 00:42:00,
2013-09-03 17:52:00,60.0,60.0,-100.00,SW,226,4.0,9.0,100,0.00,,,0.00,139.000000,,2013-09-04 00:52:00,
2013-09-03 18:00:00,59.0,58.0,-100.00,WSW,245,4.0,9.0,97,0.00,,,0.00,274.000000,,2013-09-04 01:00:00,
2013-09-03 18:22:00,59.0,58.0,-100.00,WSW,245,4.0,9.0,97,0.00,,,0.00,274.000000,,2013-09-04 01:22:00,
2013-09-03 18:32:00,59.0,58.0,-100.00,WSW,245,4.0,9.0,97,0.00,,,0.00,274.000000,,2013-09-04 01:32:00,
2013-09-03 18:42:00,59.0,58.0,-100.00,WSW,245,4.0,9.0,97,0.00,,,0.00,274.000000,,2013-09-04 01:42:00,
2013-09-03 18:52:00,59.0,58.0,-100.00,WSW,245,4.0,9.0,97,0.00,,,0.00,274.000000,,2013-09-04 01:52:00,
2013-09-03 19:00:00,58.0,58.0,-100.00,SW,227,4.0,7.0,100,0.02,,,0.02,179.000000,,2013-09-04 02:00:00,
2013-09-03 19:22:00,58.0,58.0,-100.00,SW,227,4.0,7.0,100,0.02,,,0.02,179.000000,,2013-09-04 02:22:00,
2013-09-03 19:32:00,58.0,58.0,-100.00,SW,227,4.0,7.0,100,0.02,,,0.02,179.000000,,2013-09-04 02:32:00,
2013-09-03 19:43:00,58.0,58.0,-100.00,SW,227,4.0,7.0,100,0.02,,,0.02,179.000000,,2013-09-04 02:43:00,
2013-09-03 19:52:00,58.0,58.0,-100.00,SW,227,4.0,7.0,100,0.02,,,0.02,179.000000,,2013-09-04 02:52:00,
2013-09-03 20:00:00,57.0,57.0,-100.00,SE,141,0.0,7.0,100,0.00,,,0.02,44.000000,,2013-09-04 03:00:00,
2013-09-03 20:22:00,57.0,57.0,-100.00,SE,141,0.0,7.0,100,0.00,,,0.02,44.000000,,2013-09-04 03:22:00,
2013-09-03 20:35:00,57.0,57.0,-100.00,SE,141,0.0,7.0,100,0.00,,,0.02,44.000000,,2013-09-04 03:35:00,
2013-09-03 20:44:00,57.0,57.0,-100.00,SE,141,0.0,7.0,100,0.00,,,0.02,44.000000,,2013-09-04 03:44:00,
2013-09-03 20:54:00,57.0,57.0,-100.00,SE,141,0.0,7.0,100,0.00,,,0.02,44.000000,,2013-09-04 03:54:00,
2013-09-03 21:00:00,55.0,55.0,-100.00,ENE,61,0.0,5.0,100,0.00,,,0.02,0.000000,,2013-09-04 04:00:00,
2013-09-03 21:24:00,55.0,55.0,-100.00,ENE,61,0.0,5.0,100,0.00,,,0.02,0.000000,,2013-09-04 04:24:00,
2013-09-03 21:33:00,55.0,55.0,-100.00,ENE,61,0.0,5.0,100,0.00,,,0.02,0.000000,,2013-09-04 04:33:00,
2013-09-03 21:44:00,55.0,55.0,-100.00,ENE,61,0.0,5.0,100,0.00,,,0.02,0.000000,,2013-09-04 04:44:00,
2013-09-03 21:54:00,55.0,55.0,-100.00,ENE,61,0.0,5.0,100,0.00,,,0.02,0.000000,,2013-09-04 04:54:00,
2013-09-03 22:00:00,55.0,55.0,-100.00,ENE,74,3.0,6.0,99,0.00,,,0.02,0.000000,,2013-09-04 05:00:00,
2013-09-03 22:23:00,55.0,55.0,-100.00,ENE,74,3.0,6.0,99,0.00,,,0.02,0.000000,,2013-09-04 05:23:00,
2013-09-03 22:34:00,55.0,55.0,-100.00,ENE,74,3.0,6.0,99,0.00,,,0.02,0.000000,,2013-09-04 05:34:00,
2013-09-03 22:43:00,55.0,55.0,-100.00,ENE,74,3.0,6.0,99,0.00,,,0.02,0.000000,,2013-09-04 05:43:00,
2013-09-03 22:53:00,55.0,55.0,-100.00,ENE,74,3.0,6.0,99,0.00,,,0.02,0.000000,,2013-09-04 05:53:00,
2013-09-03 23:00:00,57.0,53.0,-100.00,SE,146,0.0,6.0,88,0.00,,,0.02,0.000000,,2013-09-04 06:00:00,
2013-09-03 23:22:00,57.0,53.0,-100.00,SE,146,0.0,6.0,88,0.00,,,0.02,0.000000,,2013-09-04 06:22:00,
2013-09-03 23:32:00,57.0,53.0,-100.00,SE,146,0.0,6.0,88,0.00,,,0.02,0.000000,,2013-09-04 06:32:00,
2013-09-03 23:42:00,57.0,53.0,-100.00,SE,146,0.0,6.0,88,0.00,,,0.02,0.000000,,2013-09-04 06:42:00,
2013-09-03 23:52:00,57.0,53.0,-100.00,SE,146,0.0,6.0,88,0.00,,,0.02,0.000000,,2013-09-04 06:52:00,